createdAt,value
2023-02-03T00:00:01.043Z,24.30
2023-02-03T00:10:01.242Z,19.00
2023-02-03T00:20:01.037Z,20.10
2023-02-03T00:30:01.315Z,20.90
2023-02-03T00:40:01.024Z,17.90
2023-02-03T00:50:02.264Z,21.40
2023-02-03T01:00:01.204Z,25.80
2023-02-03T01:10:01.072Z,25.10
2023-02-03T01:20:01.028Z,16.50
2023-02-03T01:30:01.052Z,16.20
2023-02-03T01:40:00.982Z,13.70
2023-02-03T01:50:01.117Z,16.10
2023-02-03T02:00:01.016Z,14.70
2023-02-03T02:10:01.084Z,17.60
2023-02-03T02:20:01.035Z,16.20
2023-02-03T02:30:00.282Z,16.10
2023-02-03T02:40:01.052Z,18.20
2023-02-03T02:50:01.009Z,11.70
2023-02-03T03:00:00.851Z,14.30
2023-02-03T03:10:01.270Z,12.70
2023-02-03T03:20:01.280Z,20.40
2023-02-03T03:30:01.484Z,20.50
2023-02-03T03:40:03.337Z,17.10
2023-02-03T03:50:01.271Z,19.70
2023-02-03T04:00:01.853Z,17.20
2023-02-03T04:10:01.062Z,18.50
2023-02-03T04:20:01.558Z,19.90
2023-02-03T04:30:01.021Z,13.40
2023-02-03T04:40:01.075Z,15.70
2023-02-03T04:50:01.483Z,15.20
2023-02-03T05:00:01.091Z,16.50
2023-02-03T05:10:01.494Z,27.80
2023-02-03T05:20:01.507Z,17.50
2023-02-03T05:30:01.284Z,21.80
2023-02-03T05:40:01.217Z,19.30
2023-02-03T05:50:01.078Z,16.50
2023-02-03T06:00:01.318Z,18.40
2023-02-03T06:10:01.280Z,21.10
2023-02-03T06:20:01.067Z,21.50
2023-02-03T06:30:01.042Z,25.20
2023-02-03T06:40:01.043Z,21.80
2023-02-03T06:50:00.995Z,33.60
2023-02-03T07:00:03.192Z,25.10
2023-02-03T07:10:01.280Z,23.30
2023-02-03T07:20:02.336Z,23.40
2023-02-03T07:30:01.017Z,29.90
2023-02-03T07:40:01.292Z,21.20
2023-02-03T07:50:01.741Z,26.30
2023-02-03T08:00:00.982Z,22.30
2023-02-03T08:10:01.285Z,21.80
2023-02-03T08:20:01.052Z,17.40
2023-02-03T08:30:01.012Z,21.90
2023-02-03T08:50:01.579Z,22.30
2023-02-03T09:00:00.276Z,25.10
2023-02-03T09:10:01.257Z,33.00
2023-02-03T09:20:01.136Z,40.20
2023-02-03T09:30:01.117Z,37.80
2023-02-03T09:40:01.130Z,29.90
2023-02-03T09:50:00.350Z,23.90
2023-02-03T10:00:01.096Z,28.50
2023-02-03T10:10:01.099Z,32.40
2023-02-03T10:20:01.498Z,34.30
2023-02-03T10:30:02.158Z,31.80
2023-02-03T10:40:01.016Z,27.60
2023-02-03T10:50:00.346Z,45.30
2023-02-03T11:00:00.278Z,31.90
2023-02-03T11:10:01.237Z,33.20
2023-02-03T11:20:01.559Z,32.90
2023-02-03T11:30:01.058Z,40.10
2023-02-03T11:40:01.388Z,36.50
2023-02-03T11:50:01.519Z,30.70
2023-02-03T12:00:01.077Z,48.10
2023-02-03T12:10:01.096Z,45.50
2023-02-03T12:20:01.045Z,49.20
2023-02-03T12:30:01.102Z,39.70
2023-02-03T12:40:01.247Z,33.10
2023-02-03T12:50:01.027Z,33.10
2023-02-03T13:00:01.063Z,39.90
2023-02-03T13:10:01.526Z,33.70
2023-02-03T13:20:01.069Z,29.40
2023-02-03T13:30:00.403Z,34.50
2023-02-03T13:40:01.261Z,26.50
2023-02-03T13:50:01.084Z,42.40
2023-02-03T14:00:01.109Z,36.80
2023-02-03T14:10:01.287Z,35.90
2023-02-03T14:20:01.078Z,26.50
2023-02-03T14:30:01.255Z,38.50
2023-02-03T14:40:01.905Z,39.00
2023-02-03T14:50:00.288Z,45.90
2023-02-03T15:00:01.060Z,47.10
2023-02-03T15:10:02.348Z,51.90
2023-02-03T15:20:01.127Z,31.60
2023-02-03T15:30:01.293Z,29.30
2023-02-03T15:40:01.130Z,28.00
2023-02-03T15:50:02.187Z,31.50
2023-02-03T16:00:01.345Z,26.80
2023-02-03T16:10:02.006Z,40.60
2023-02-03T16:20:01.171Z,48.00
2023-02-03T16:30:02.478Z,70.60
2023-02-03T16:40:01.553Z,39.90
2023-02-03T16:50:01.266Z,58.00
2023-02-03T17:00:01.169Z,31.70
2023-02-03T17:10:02.011Z,36.30
2023-02-03T17:20:01.773Z,55.80
2023-02-03T17:30:02.274Z,40.10
2023-02-03T18:00:02.176Z,30.10
2023-02-03T18:10:02.034Z,36.30
2023-02-03T18:20:01.931Z,33.10
2023-02-03T18:30:01.248Z,31.50
2023-02-03T18:40:01.612Z,35.90
2023-02-03T18:50:01.676Z,36.10
2023-02-03T19:00:01.160Z,37.10
2023-02-03T19:10:01.140Z,42.60
2023-02-03T19:20:01.271Z,42.00
2023-02-03T19:30:03.222Z,37.00
2023-02-03T19:40:01.033Z,39.40
2023-02-03T19:50:02.192Z,37.90
2023-02-03T20:00:01.528Z,32.50
2023-02-03T20:10:01.288Z,38.70
2023-02-03T20:20:02.338Z,29.20
2023-02-03T20:30:01.086Z,32.20
2023-02-03T20:40:02.148Z,28.00
2023-02-03T20:50:01.345Z,42.50
2023-02-03T21:00:01.673Z,26.30
2023-02-03T21:10:02.138Z,38.60
2023-02-03T21:20:01.498Z,39.80
2023-02-03T21:30:02.392Z,31.40
2023-02-03T21:50:02.217Z,26.60
2023-02-03T22:00:01.280Z,31.50
2023-02-03T22:10:02.068Z,22.00
2023-02-03T22:20:01.994Z,32.50
2023-02-03T22:30:01.256Z,23.30
2023-02-03T22:40:01.279Z,18.80
2023-02-03T22:50:02.638Z,25.50
2023-02-03T23:00:02.136Z,22.80
2023-02-03T23:10:01.261Z,23.90
2023-02-03T23:20:01.284Z,23.80
2023-02-03T23:30:01.476Z,18.50
2023-02-03T23:40:01.080Z,21.60
2023-02-03T23:50:01.931Z,24.70
